createdAt,value
2023-01-22T00:02:01.473Z,37.80
2023-01-22T00:04:31.246Z,21.13
2023-01-22T00:07:00.889Z,19.70
2023-01-22T00:09:30.558Z,22.17
2023-01-22T00:12:00.600Z,18.63
2023-01-22T00:14:32.915Z,20.63
2023-01-22T00:17:02.618Z,18.75
2023-01-22T00:19:32.274Z,18.73
2023-01-22T00:22:01.901Z,20.50
2023-01-22T00:24:31.567Z,21.80
2023-01-22T00:27:01.696Z,21.33
2023-01-22T00:29:33.927Z,24.07
2023-01-22T00:32:03.672Z,20.93
2023-01-22T00:34:33.618Z,21.63
2023-01-22T00:37:03.258Z,23.40
2023-01-22T00:39:32.896Z,22.33
2023-01-22T00:42:02.726Z,21.83
2023-01-22T00:44:35.023Z,21.40
2023-01-22T00:47:04.692Z,25.50
2023-01-22T00:49:35.038Z,24.63
2023-01-22T00:52:04.657Z,26.57
2023-01-22T00:54:34.300Z,29.23
2023-01-22T00:57:03.967Z,25.03
2023-01-22T00:59:36.234Z,25.10
2023-01-22T01:02:06.643Z,25.40
2023-01-22T01:04:36.333Z,24.90
2023-01-22T01:07:05.969Z,26.10
2023-01-22T01:09:35.671Z,27.75
2023-01-22T01:12:05.359Z,30.40
2023-01-22T01:14:37.798Z,27.90
2023-01-22T01:17:07.433Z,28.50
2023-01-22T01:19:37.099Z,25.40
2023-01-22T01:22:08.226Z,30.60
2023-01-22T01:24:38.784Z,32.30
2023-01-22T01:27:08.446Z,28.10
2023-01-22T01:29:40.677Z,31.57
2023-01-22T01:32:10.311Z,27.60
2023-01-22T01:34:39.965Z,32.03
2023-01-22T01:37:09.660Z,26.23
2023-01-22T01:39:39.265Z,26.80
2023-01-22T01:42:09.258Z,26.48
2023-01-22T01:44:43.320Z,30.70
2023-01-22T01:47:32.081Z,29.30
2023-01-22T01:50:01.762Z,32.38
2023-01-22T01:52:31.416Z,31.63
2023-01-22T01:55:01.345Z,27.60
2023-01-22T01:57:34.650Z,30.83
2023-01-22T02:00:10.926Z,30.80
2023-01-22T02:02:43.321Z,25.27
2023-01-22T02:05:13.775Z,24.37
2023-01-22T02:07:44.463Z,29.53
2023-01-22T02:10:14.195Z,25.60
2023-01-22T02:12:43.894Z,27.80
2023-01-22T02:15:16.594Z,23.90
2023-01-22T02:17:46.284Z,26.17
2023-01-22T02:20:16.675Z,23.65
2023-01-22T02:22:49.930Z,25.85
2023-01-22T02:25:21.805Z,23.83
2023-01-22T02:27:51.471Z,24.07
2023-01-22T02:30:23.871Z,29.80
2023-01-22T02:32:53.625Z,24.90
2023-01-22T02:35:23.362Z,22.77
2023-01-22T02:37:55.639Z,25.53
2023-01-22T02:40:25.301Z,24.43
2023-01-22T02:42:56.658Z,25.00
2023-01-22T02:45:26.637Z,30.17
2023-01-22T02:47:56.371Z,26.20
2023-01-22T02:50:26.082Z,23.30
2023-01-22T02:52:58.657Z,25.83
2023-01-22T02:55:28.328Z,22.83
2023-01-22T02:57:59.604Z,21.80
2023-01-22T03:00:29.268Z,22.93
2023-01-22T03:02:59.146Z,24.67
2023-01-22T03:05:29.591Z,19.37
2023-01-22T03:08:01.807Z,22.13
2023-01-22T03:10:32.011Z,25.10
2023-01-22T03:13:15.437Z,26.42
2023-01-22T03:15:57.909Z,23.03
2023-01-22T03:18:40.101Z,19.53
2023-01-22T03:21:18.902Z,24.07
2023-01-22T03:23:53.740Z,20.70
2023-01-22T03:26:25.978Z,18.67
2023-01-22T03:28:55.568Z,16.25
2023-01-22T03:31:25.396Z,16.60
2023-01-22T03:33:55.260Z,18.60
2023-01-22T03:36:24.956Z,17.63
2023-01-22T03:39:00.572Z,16.30
2023-01-22T03:41:31.179Z,21.20
2023-01-22T03:44:03.584Z,19.10
2023-01-22T03:46:36.834Z,17.03
2023-01-22T03:49:06.956Z,16.90
2023-01-22T03:51:36.831Z,21.80
2023-01-22T03:54:09.984Z,18.05
2023-01-22T03:56:41.886Z,15.57
2023-01-22T03:59:20.474Z,16.40
2023-01-22T04:01:50.971Z,16.30
2023-01-22T04:04:21.313Z,22.02
2023-01-22T04:06:51.100Z,26.07
2023-01-22T04:09:23.443Z,16.08
2023-01-22T04:11:53.325Z,19.50
2023-01-22T04:14:22.998Z,19.00
2023-01-22T04:16:59.933Z,18.58
2023-01-22T04:19:53.100Z,16.27
2023-01-22T04:22:42.536Z,18.83
2023-01-22T04:25:16.998Z,17.10
2023-01-22T04:27:47.844Z,19.25
2023-01-22T04:30:20.722Z,19.23
2023-01-22T04:32:53.959Z,18.77
2023-01-22T04:35:33.241Z,24.60
2023-01-22T04:38:05.579Z,20.95
2023-01-22T04:40:37.853Z,22.10
2023-01-22T04:43:09.649Z,18.13
2023-01-22T04:45:40.046Z,16.63
2023-01-22T04:48:12.783Z,18.15
2023-01-22T04:50:46.323Z,19.05
2023-01-22T04:53:16.409Z,19.02
2023-01-22T04:55:48.825Z,18.95
2023-01-22T04:58:18.551Z,18.80
2023-01-22T05:00:48.230Z,21.92
2023-01-22T05:03:17.970Z,21.70
2023-01-22T05:05:47.627Z,23.33
2023-01-22T05:08:17.468Z,21.10
2023-01-22T05:10:50.482Z,19.80
2023-01-22T05:13:28.287Z,21.17
2023-01-22T05:15:58.331Z,19.75
2023-01-22T05:18:28.967Z,21.70
2023-01-22T05:20:58.611Z,24.35
2023-01-22T05:23:31.844Z,23.88
2023-01-22T05:26:04.097Z,20.40
2023-01-22T05:28:59.661Z,21.35
2023-01-22T05:31:47.783Z,21.75
2023-01-22T05:34:37.747Z,26.55
2023-01-22T05:37:07.830Z,21.45
2023-01-22T05:39:38.325Z,23.27
2023-01-22T05:42:16.040Z,23.80
2023-01-22T05:44:48.127Z,23.60
2023-01-22T05:47:18.447Z,27.70
2023-01-22T05:49:48.089Z,25.30
2023-01-22T05:52:18.716Z,22.23
2023-01-22T05:54:48.379Z,22.85
2023-01-22T05:57:20.643Z,29.23
2023-01-22T05:59:51.540Z,28.37
2023-01-22T06:02:21.369Z,23.60
2023-01-22T06:04:53.096Z,22.25
2023-01-22T06:07:27.634Z,28.40
2023-01-22T06:09:57.307Z,25.73
2023-01-22T06:12:29.524Z,24.02
2023-01-22T06:14:59.185Z,24.75
2023-01-22T06:17:28.852Z,26.15
2023-01-22T06:20:02.687Z,24.38
2023-01-22T06:22:32.945Z,27.92
2023-01-22T06:25:04.754Z,28.45
2023-01-22T06:27:55.170Z,32.47
2023-01-22T06:30:25.675Z,24.60
2023-01-22T06:32:57.563Z,31.80
2023-01-22T06:35:27.349Z,23.88
2023-01-22T06:37:56.980Z,31.05
2023-01-22T06:40:27.478Z,27.50
2023-01-22T06:42:59.848Z,27.50
2023-01-22T06:45:29.507Z,24.42
2023-01-22T06:48:03.161Z,31.05
2023-01-22T06:50:32.848Z,25.33
2023-01-22T06:53:03.442Z,29.23
2023-01-22T06:55:33.282Z,25.50
2023-01-22T06:58:05.637Z,26.85
2023-01-22T07:00:35.276Z,30.33
2023-01-22T07:03:08.578Z,30.23
2023-01-22T07:05:38.277Z,22.30
2023-01-22T07:08:08.344Z,26.70
2023-01-22T07:10:38.064Z,24.23
2023-01-22T07:13:11.450Z,27.00
2023-01-22T07:15:41.088Z,26.92
2023-01-22T07:18:14.491Z,26.52
2023-01-22T07:20:44.370Z,27.98
2023-01-22T07:23:14.105Z,25.27
2023-01-22T07:25:44.793Z,31.07
2023-01-22T07:28:18.139Z,26.67
2023-01-22T07:30:48.778Z,26.52
2023-01-22T07:33:18.707Z,31.05
2023-01-22T07:35:56.503Z,27.63
2023-01-22T07:38:26.614Z,30.17
2023-01-22T07:40:56.356Z,29.92
2023-01-22T07:43:28.691Z,32.38
2023-01-22T07:45:59.171Z,26.17
2023-01-22T07:48:28.933Z,28.10
2023-01-22T07:51:02.176Z,28.73
2023-01-22T07:53:31.975Z,28.38
2023-01-22T07:56:03.441Z,31.73
2023-01-22T07:58:35.678Z,30.33
2023-01-22T08:01:08.107Z,28.45
2023-01-22T08:03:37.970Z,30.47
2023-01-22T08:06:11.276Z,33.05
2023-01-22T08:08:42.697Z,24.77
2023-01-22T08:11:12.676Z,24.40
2023-01-22T08:13:44.981Z,38.17
2023-01-22T08:16:14.645Z,38.35
2023-01-22T08:18:44.312Z,47.67
2023-01-22T08:21:14.161Z,30.05
2023-01-22T08:23:48.200Z,22.50
2023-01-22T08:26:18.727Z,24.02
2023-01-22T08:28:50.929Z,24.48
2023-01-22T08:31:27.891Z,28.25
2023-01-22T08:33:58.224Z,28.60
2023-01-22T08:36:27.989Z,21.48
2023-01-22T08:38:58.201Z,24.42
2023-01-22T08:41:28.029Z,23.85
2023-01-22T08:44:00.209Z,22.90
2023-01-22T08:46:29.862Z,23.90
2023-01-22T08:48:59.502Z,25.45
2023-01-22T08:51:29.147Z,23.85
2023-01-22T08:53:58.773Z,28.00
2023-01-22T08:56:28.422Z,26.33
2023-01-22T08:59:06.450Z,23.00
2023-01-22T09:01:36.832Z,25.80
2023-01-22T09:04:08.501Z,28.13
2023-01-22T09:06:38.964Z,25.20
2023-01-22T09:09:09.268Z,26.83
2023-01-22T09:11:39.835Z,27.33
2023-01-22T09:14:12.228Z,28.33
2023-01-22T09:16:42.524Z,25.20
2023-01-22T09:19:13.569Z,28.97
2023-01-22T09:21:43.167Z,24.42
2023-01-22T09:24:12.917Z,28.35
2023-01-22T09:26:42.622Z,30.00
2023-01-22T09:29:14.918Z,25.20
2023-01-22T09:31:44.579Z,27.60
2023-01-22T09:34:14.279Z,25.13
2023-01-22T09:36:44.173Z,25.70
2023-01-22T09:39:14.058Z,29.30
2023-01-22T09:41:47.977Z,32.70
2023-01-22T09:44:25.412Z,27.60
2023-01-22T09:47:00.097Z,24.63
2023-01-22T09:49:35.106Z,27.17
2023-01-22T09:52:07.140Z,24.93
2023-01-22T09:54:36.984Z,25.58
2023-01-22T09:57:10.440Z,24.50
2023-01-22T09:59:49.769Z,25.57
2023-01-22T10:02:27.075Z,24.83
2023-01-22T10:05:01.869Z,31.73
2023-01-22T10:07:36.765Z,25.83
2023-01-22T10:10:21.401Z,23.57
2023-01-22T10:12:57.006Z,29.17
2023-01-22T10:15:30.357Z,29.83
2023-01-22T10:18:00.926Z,28.58
2023-01-22T10:20:31.032Z,33.70
2023-01-22T10:23:04.707Z,25.63
2023-01-22T10:25:34.393Z,26.50
2023-01-22T10:28:04.308Z,26.90
2023-01-22T10:30:36.837Z,25.60
2023-01-22T10:33:09.077Z,31.33
2023-01-22T10:35:45.788Z,29.47
2023-01-22T10:38:25.168Z,29.50
2023-01-22T10:41:00.753Z,25.83
2023-01-22T10:43:36.384Z,24.73
2023-01-22T10:46:18.834Z,27.57
2023-01-22T10:48:48.685Z,25.83
2023-01-22T10:51:22.553Z,25.50
2023-01-22T10:53:55.984Z,21.45
2023-01-22T10:56:31.974Z,29.20
2023-01-22T10:59:05.026Z,29.43
2023-01-22T11:01:39.988Z,28.80
2023-01-22T11:04:16.744Z,24.83
2023-01-22T11:06:50.220Z,25.03
2023-01-22T11:09:23.730Z,22.60
2023-01-22T11:12:01.591Z,25.30
2023-01-22T11:14:35.599Z,24.80
2023-01-22T11:17:16.712Z,27.27
2023-01-22T11:19:52.285Z,25.90
2023-01-22T11:22:30.316Z,25.57
2023-01-22T11:25:00.001Z,28.17
2023-01-22T11:27:47.584Z,26.40
2023-01-22T11:30:52.488Z,28.63
2023-01-22T11:33:37.931Z,26.70
2023-01-22T11:36:13.538Z,27.67
2023-01-22T11:38:51.404Z,27.00
2023-01-22T11:41:44.499Z,29.20
2023-01-22T11:44:50.404Z,27.60
2023-01-22T11:47:38.725Z,32.80
2023-01-22T11:50:24.797Z,26.17
2023-01-22T11:53:04.855Z,29.03
2023-01-22T11:55:57.281Z,30.20
2023-01-22T11:58:38.657Z,30.87
2023-01-22T12:01:20.632Z,33.97
2023-01-22T12:04:09.084Z,21.90
2023-01-22T12:07:04.775Z,24.77
2023-01-22T12:09:42.638Z,25.23
2023-01-22T12:12:29.801Z,31.23
2023-01-22T12:15:20.616Z,27.10
2023-01-22T12:18:03.061Z,19.87
2023-01-22T12:20:45.422Z,21.37
2023-01-22T12:23:24.028Z,23.27
2023-01-22T12:26:00.210Z,27.13
2023-01-22T12:28:35.057Z,23.70
2023-01-22T12:31:12.964Z,27.40
2023-01-22T12:33:44.651Z,30.00
2023-01-22T12:36:19.021Z,24.00
2023-01-22T12:38:57.379Z,23.73
2023-01-22T12:41:55.130Z,21.17
2023-01-22T12:44:40.971Z,29.20
2023-01-22T12:47:19.317Z,23.10
2023-01-22T12:49:50.451Z,32.83
2023-01-22T12:52:37.980Z,30.60
2023-01-22T12:55:31.811Z,25.30
2023-01-22T12:58:02.796Z,28.47
2023-01-22T13:00:39.401Z,24.60
2023-01-22T13:03:32.340Z,21.43
2023-01-22T13:06:06.828Z,23.70
2023-01-22T13:08:43.904Z,27.57
2023-01-22T13:11:29.551Z,25.80
2023-01-22T13:14:15.148Z,27.40
2023-01-22T13:16:57.161Z,30.33
2023-01-22T13:19:30.419Z,22.37
2023-01-22T13:22:03.016Z,26.77
2023-01-22T13:24:33.788Z,27.50
2023-01-22T13:27:08.871Z,30.03
2023-01-22T13:29:42.631Z,30.30
2023-01-22T13:32:20.890Z,33.30
2023-01-22T13:34:51.582Z,32.30
2023-01-22T13:37:30.528Z,26.00
2023-01-22T13:40:01.310Z,32.73
2023-01-22T13:42:37.316Z,30.93
2023-01-22T13:45:09.922Z,25.03
2023-01-22T13:47:40.647Z,27.67
2023-01-22T13:50:22.753Z,25.30
2023-01-22T13:52:53.530Z,33.10
2023-01-22T13:55:27.123Z,29.83
2023-01-22T13:58:01.699Z,27.80
2023-01-22T14:00:36.917Z,24.97
2023-01-22T14:03:23.498Z,32.40
2023-01-22T14:05:53.395Z,31.17
2023-01-22T14:08:23.048Z,30.03
2023-01-22T14:10:59.890Z,29.73
2023-01-22T14:13:42.866Z,33.30
2023-01-22T14:16:13.405Z,28.03
2023-01-22T14:18:45.252Z,27.43
2023-01-22T14:21:16.662Z,32.73
2023-01-22T14:23:46.606Z,37.77
2023-01-22T14:26:16.559Z,32.60
2023-01-22T14:28:49.083Z,35.90
2023-01-22T14:31:19.027Z,34.70
2023-01-22T14:33:48.660Z,46.27
2023-01-22T14:36:20.317Z,48.80
2023-01-22T14:38:51.503Z,50.53
2023-01-22T14:41:21.416Z,39.93
2023-01-22T14:43:53.916Z,52.80
2023-01-22T14:46:23.546Z,52.03
2023-01-22T14:48:53.458Z,51.13
2023-01-22T14:51:23.531Z,46.03
2023-01-22T14:53:53.236Z,43.33
2023-01-22T14:56:23.123Z,52.40
2023-01-22T14:58:55.341Z,46.87
2023-01-22T15:01:25.909Z,44.47
2023-01-22T15:03:55.546Z,58.90
2023-01-22T15:06:27.049Z,49.73
2023-01-22T15:08:56.686Z,49.23
2023-01-22T15:11:26.654Z,44.20
2023-01-22T15:13:58.930Z,50.50
2023-01-22T15:16:28.903Z,47.53
2023-01-22T15:18:58.822Z,59.20
2023-01-22T15:21:28.767Z,52.97
2023-01-22T15:23:59.172Z,52.70
2023-01-22T15:26:31.977Z,48.57
2023-01-22T15:29:05.308Z,50.03
2023-01-22T15:31:35.439Z,45.77
2023-01-22T15:34:05.517Z,41.23
2023-01-22T15:36:39.474Z,44.00
2023-01-22T15:39:10.007Z,46.60
2023-01-22T15:41:40.285Z,44.27
2023-01-22T15:44:15.219Z,36.83
2023-01-22T15:46:46.402Z,44.63
2023-01-22T15:49:18.160Z,38.93
2023-01-22T15:51:48.064Z,44.17
2023-01-22T15:54:19.410Z,32.80
2023-01-22T15:56:49.435Z,31.97
2023-01-22T15:59:22.170Z,38.23
2023-01-22T16:01:52.484Z,39.07
2023-01-22T16:04:22.263Z,39.77
2023-01-22T16:06:52.249Z,34.43
2023-01-22T16:09:21.886Z,45.17
2023-01-22T16:11:52.571Z,37.10
2023-01-22T16:14:25.085Z,39.83
2023-01-22T16:16:54.758Z,36.37
2023-01-22T16:19:24.462Z,36.50
2023-01-22T16:21:56.079Z,32.67
2023-01-22T16:24:25.748Z,29.30
2023-01-22T16:26:55.706Z,28.93
2023-01-22T16:29:28.383Z,27.37
2023-01-22T16:31:58.342Z,22.80
2023-01-22T16:34:27.984Z,30.70
2023-01-22T16:36:59.508Z,25.37
2023-01-22T16:39:29.447Z,25.30
2023-01-22T16:41:59.115Z,29.83
2023-01-22T16:44:33.608Z,25.73
2023-01-22T16:47:03.785Z,23.77
2023-01-22T16:49:35.051Z,28.87
2023-01-22T16:52:21.515Z,24.00
2023-01-22T16:54:51.894Z,24.07
2023-01-22T16:57:22.035Z,26.27
2023-01-22T16:59:54.286Z,24.90
2023-01-22T17:02:24.020Z,27.87
2023-01-22T17:04:55.104Z,26.77
2023-01-22T17:07:33.657Z,25.27
2023-01-22T17:10:04.389Z,31.73
2023-01-22T17:12:34.453Z,33.60
2023-01-22T17:15:07.884Z,25.93
2023-01-22T17:17:37.870Z,28.60
2023-01-22T17:20:10.606Z,32.63
2023-01-22T17:22:42.996Z,30.47
2023-01-22T17:25:12.951Z,30.20
2023-01-22T17:27:42.649Z,30.90
2023-01-22T17:30:16.948Z,27.63
2023-01-22T17:32:47.822Z,28.40
2023-01-22T17:35:18.993Z,24.03
2023-01-22T17:37:48.869Z,30.13
2023-01-22T17:40:18.870Z,27.33
2023-01-22T17:42:48.837Z,25.70
2023-01-22T17:45:21.403Z,24.87
2023-01-22T17:47:51.504Z,28.73
2023-01-22T17:50:21.364Z,23.50
2023-01-22T17:52:51.078Z,26.83
2023-01-22T17:55:22.019Z,31.20
2023-01-22T17:57:51.744Z,27.60
2023-01-22T18:00:25.607Z,28.03
2023-01-22T18:02:55.553Z,35.63
2023-01-22T18:05:26.683Z,36.73
2023-01-22T18:07:56.298Z,39.07
2023-01-22T18:10:26.679Z,35.80
2023-01-22T18:12:56.341Z,31.03
2023-01-22T18:15:28.543Z,44.37
2023-01-22T18:17:58.511Z,35.43
2023-01-22T18:20:28.378Z,31.17
2023-01-22T18:22:58.264Z,30.00
2023-01-22T18:25:28.184Z,28.77
2023-01-22T18:27:58.100Z,27.80
2023-01-22T18:30:30.385Z,29.93
2023-01-22T18:33:00.299Z,32.30
2023-01-22T18:35:29.958Z,32.27
2023-01-22T18:38:00.171Z,34.17
2023-01-22T18:40:31.894Z,32.90
2023-01-22T18:43:01.893Z,36.63
2023-01-22T18:45:37.073Z,37.00
2023-01-22T18:48:07.876Z,37.73
2023-01-22T18:50:37.812Z,42.90
2023-01-22T18:53:07.597Z,40.43
2023-01-22T18:55:38.549Z,45.13
2023-01-22T18:58:17.301Z,45.23
2023-01-22T19:00:49.975Z,44.83
2023-01-22T19:03:19.918Z,38.50
2023-01-22T19:05:50.073Z,48.80
2023-01-22T19:08:20.643Z,46.40
2023-01-22T19:10:50.588Z,44.30
2023-01-22T19:13:20.968Z,45.07
2023-01-22T19:15:53.238Z,40.10
2023-01-22T19:18:23.227Z,43.33
2023-01-22T19:20:53.138Z,48.90
2023-01-22T19:23:23.096Z,42.83
2023-01-22T19:25:57.015Z,51.27
2023-01-22T19:28:27.062Z,54.30
2023-01-22T19:30:59.410Z,44.60
2023-01-22T19:33:29.142Z,43.23
2023-01-22T19:35:59.203Z,45.80
2023-01-22T19:38:29.129Z,52.47
2023-01-22T19:40:59.062Z,52.17
2023-01-22T19:43:29.212Z,56.20
2023-01-22T19:46:05.031Z,66.53
2023-01-22T19:48:34.862Z,55.30
2023-01-22T19:51:07.575Z,61.83
2023-01-22T19:53:37.697Z,63.93
2023-01-22T19:56:16.789Z,56.97
2023-01-22T19:58:47.946Z,51.63
2023-01-22T20:01:21.014Z,71.93
2023-01-22T20:03:50.927Z,53.17
2023-01-22T20:06:20.938Z,53.73
2023-01-22T20:08:50.835Z,59.77
2023-01-22T20:11:21.320Z,63.90
2023-01-22T20:13:51.456Z,60.40
2023-01-22T20:16:25.883Z,58.77
2023-01-22T20:18:56.961Z,57.00
2023-01-22T20:21:28.637Z,61.33
2023-01-22T20:23:58.503Z,63.10
2023-01-22T20:26:28.169Z,64.97
2023-01-22T20:28:58.452Z,55.33
2023-01-22T20:31:31.111Z,70.43
2023-01-22T20:34:02.547Z,62.53
2023-01-22T20:36:32.696Z,66.63
2023-01-22T20:39:02.685Z,62.00
2023-01-22T20:41:34.429Z,62.30
2023-01-22T20:44:04.805Z,55.70
2023-01-22T20:46:41.194Z,57.83
2023-01-22T20:49:11.345Z,51.67
2023-01-22T20:51:42.305Z,65.23
2023-01-22T20:54:12.228Z,65.17
2023-01-22T20:56:42.492Z,63.27
2023-01-22T20:59:15.412Z,58.90
2023-01-22T21:01:48.043Z,67.37
2023-01-22T21:04:19.210Z,58.20
2023-01-22T21:06:50.163Z,56.57
2023-01-22T21:09:20.251Z,63.63
2023-01-22T21:11:50.253Z,52.97
2023-01-22T21:14:20.954Z,68.50
2023-01-22T21:16:53.529Z,52.30
2023-01-22T21:19:26.114Z,53.93
2023-01-22T21:21:57.362Z,53.70
2023-01-22T21:24:27.330Z,49.17
2023-01-22T21:26:57.024Z,64.93
2023-01-22T21:29:26.803Z,61.37
2023-01-22T21:31:59.431Z,62.23
2023-01-22T21:34:30.153Z,56.80
2023-01-22T21:37:01.135Z,58.13
2023-01-22T21:39:32.469Z,67.77
2023-01-22T21:42:14.443Z,61.43
2023-01-22T21:44:56.828Z,61.00
2023-01-22T21:47:29.365Z,50.07
2023-01-22T21:49:59.112Z,44.97
2023-01-22T21:52:28.966Z,39.80
2023-01-22T21:54:59.214Z,40.57
2023-01-22T21:57:29.444Z,39.60
2023-01-22T21:59:59.165Z,42.20
2023-01-22T22:02:31.625Z,42.50
2023-01-22T22:05:01.668Z,53.33
2023-01-22T22:07:31.336Z,51.40
2023-01-22T22:10:01.026Z,55.17
2023-01-22T22:12:31.399Z,60.20
2023-01-22T22:15:01.065Z,68.70
2023-01-22T22:17:33.313Z,81.70
2023-01-22T22:20:03.073Z,69.90
2023-01-22T22:22:33.723Z,71.53
2023-01-22T22:25:03.394Z,78.93
2023-01-22T22:27:33.115Z,58.43
2023-01-22T22:30:02.790Z,94.40
2023-01-22T22:32:35.055Z,135.37
2023-01-22T22:35:04.751Z,94.53
2023-01-22T22:37:34.415Z,71.00
2023-01-22T22:40:04.876Z,57.83
2023-01-22T22:42:34.531Z,59.07
2023-01-22T22:45:04.332Z,80.50
2023-01-22T22:47:38.102Z,62.87
2023-01-22T22:50:10.485Z,67.07
2023-01-22T22:52:40.706Z,136.27
2023-01-22T22:55:11.325Z,193.17
2023-01-22T22:57:41.045Z,51.10
2023-01-22T23:00:14.563Z,65.37
2023-01-22T23:02:46.880Z,82.90
2023-01-22T23:05:16.724Z,53.63
2023-01-22T23:07:46.459Z,50.63
2023-01-22T23:10:28.914Z,51.30
2023-01-22T23:13:03.425Z,51.73
2023-01-22T23:15:33.706Z,56.17
2023-01-22T23:18:06.142Z,124.37
2023-01-22T23:20:37.360Z,55.57
2023-01-22T23:23:07.044Z,53.83
2023-01-22T23:25:36.790Z,54.63
2023-01-22T23:28:06.898Z,63.37
2023-01-22T23:30:37.559Z,77.60
2023-01-22T23:33:09.919Z,150.27
2023-01-22T23:35:39.575Z,50.20
2023-01-22T23:38:09.298Z,120.10
2023-01-22T23:40:39.071Z,68.77
2023-01-22T23:43:08.772Z,209.30
2023-01-22T23:45:41.383Z,76.70
2023-01-22T23:48:13.837Z,45.40
2023-01-22T23:50:46.243Z,44.43
2023-01-22T23:53:15.943Z,227.40
2023-01-22T23:55:46.212Z,46.10
2023-01-22T23:58:15.899Z,45.17
